createdAt,value
2022-11-15T00:00:36.100Z,0.10
2022-11-15T00:03:46.708Z,0.20
2022-11-15T00:06:52.520Z,0.10
2022-11-15T00:09:57.841Z,0.10
2022-11-15T00:13:03.311Z,0.20
2022-11-15T00:16:09.119Z,0.10
2022-11-15T00:19:14.649Z,0.10
2022-11-15T00:22:20.188Z,0.20
2022-11-15T00:25:26.004Z,0.10
2022-11-15T00:28:31.480Z,0.20
2022-11-15T00:31:36.554Z,0.10
2022-11-15T00:34:42.105Z,0.00
2022-11-15T00:37:47.475Z,0.10
2022-11-15T00:40:53.101Z,0.20
2022-11-15T00:43:58.606Z,0.10
2022-11-15T00:47:04.007Z,0.00
2022-11-15T00:50:14.130Z,0.10
2022-11-15T00:53:20.944Z,0.10
2022-11-15T00:56:26.741Z,0.10
2022-11-15T00:59:32.156Z,0.10
2022-11-15T01:02:37.698Z,0.10
2022-11-15T01:05:43.340Z,0.10
2022-11-15T01:08:48.633Z,0.10
2022-11-15T01:11:54.471Z,0.10
2022-11-15T01:15:00.187Z,0.00
2022-11-15T01:18:05.790Z,0.10
2022-11-15T01:21:11.204Z,0.10
2022-11-15T01:24:17.599Z,0.10
2022-11-15T01:27:22.815Z,0.10
2022-11-15T01:30:28.892Z,0.13
2022-11-15T01:33:34.315Z,0.10
2022-11-15T01:36:42.196Z,0.10
2022-11-15T01:39:47.711Z,0.10
2022-11-15T01:42:53.302Z,0.00
2022-11-15T01:45:58.632Z,0.20
2022-11-15T01:49:04.572Z,0.03
2022-11-15T01:52:10.055Z,0.10
2022-11-15T01:55:20.264Z,0.00
2022-11-15T01:58:26.643Z,0.00
2022-11-15T02:01:34.396Z,0.10
2022-11-15T02:05:12.039Z,0.20
2022-11-15T02:08:17.779Z,0.10
2022-11-15T02:11:28.233Z,0.10
2022-11-15T02:14:36.894Z,0.10
2022-11-15T02:17:53.513Z,0.10
2022-11-15T02:21:04.643Z,0.00
2022-11-15T02:24:18.939Z,0.20
2022-11-15T02:28:05.576Z,0.00
2022-11-15T02:31:25.798Z,0.10
2022-11-15T02:34:42.158Z,0.10
2022-11-15T02:37:55.473Z,0.10
2022-11-15T02:41:01.010Z,0.30
2022-11-15T02:44:21.726Z,0.10
2022-11-15T02:47:37.022Z,0.00
2022-11-15T02:50:46.732Z,0.10
2022-11-15T02:53:52.370Z,0.07
2022-11-15T02:56:57.637Z,0.00
2022-11-15T03:00:44.019Z,0.13
2022-11-15T03:04:01.042Z,0.00
2022-11-15T03:07:21.713Z,0.10
2022-11-15T03:10:33.262Z,0.10
2022-11-15T03:13:48.804Z,0.10
2022-11-15T03:17:02.945Z,0.10
2022-11-15T03:20:12.787Z,0.10
2022-11-15T03:23:24.495Z,0.20
2022-11-15T03:26:33.438Z,0.10
2022-11-15T03:29:43.939Z,0.00
2022-11-15T03:32:53.204Z,0.13
2022-11-15T03:36:02.307Z,0.10
2022-11-15T03:39:07.792Z,0.10
2022-11-15T03:42:28.740Z,0.20
2022-11-15T03:46:00.524Z,0.23
2022-11-15T03:49:14.711Z,0.10
2022-11-15T03:52:21.839Z,0.00
2022-11-15T03:55:30.185Z,0.20
2022-11-15T03:58:35.797Z,0.10
2022-11-15T04:01:41.340Z,0.10
2022-11-15T04:04:47.231Z,0.00
2022-11-15T04:07:52.852Z,0.20
2022-11-15T04:10:58.987Z,0.10
2022-11-15T04:14:04.224Z,0.07
2022-11-15T04:17:09.690Z,0.03
2022-11-15T04:20:13.115Z,0.10
2022-11-15T04:23:19.631Z,0.10
2022-11-15T04:26:32.102Z,0.10
2022-11-15T04:29:55.979Z,0.03
2022-11-15T04:33:01.134Z,0.20
2022-11-15T04:36:06.737Z,0.10
2022-11-15T04:39:12.214Z,0.13
2022-11-15T04:42:17.570Z,0.10
2022-11-15T04:45:22.851Z,0.10
2022-11-15T04:48:28.392Z,0.07
2022-11-15T04:51:33.732Z,0.20
2022-11-15T04:54:39.425Z,0.13
2022-11-15T04:57:44.757Z,0.10
2022-11-15T05:00:51.245Z,0.10
2022-11-15T05:03:55.920Z,0.00
2022-11-15T05:07:01.794Z,0.20
2022-11-15T05:10:07.523Z,0.10
2022-11-15T05:13:13.311Z,0.17
2022-11-15T05:16:18.907Z,0.10
2022-11-15T05:19:24.746Z,0.20
2022-11-15T05:22:30.049Z,0.10
2022-11-15T05:25:35.971Z,0.10
2022-11-15T05:28:41.320Z,0.20
2022-11-15T05:31:48.426Z,0.00
2022-11-15T05:34:53.988Z,0.07
2022-11-15T05:37:59.679Z,0.10
2022-11-15T05:41:05.295Z,0.00
2022-11-15T05:44:12.137Z,0.10
2022-11-15T05:47:18.231Z,0.10
2022-11-15T05:50:24.203Z,0.17
2022-11-15T05:53:32.040Z,0.10
2022-11-15T05:56:38.151Z,0.10
2022-11-15T05:59:44.138Z,0.10
2022-11-15T06:02:49.643Z,0.10
2022-11-15T06:05:55.228Z,0.20
2022-11-15T06:09:00.864Z,0.30
2022-11-15T06:12:06.304Z,0.00
2022-11-15T06:15:11.914Z,0.10
2022-11-15T06:18:17.979Z,0.10
2022-11-15T06:21:23.883Z,0.30
2022-11-15T06:24:28.997Z,0.10
2022-11-15T06:27:34.708Z,0.00
2022-11-15T06:30:41.145Z,0.10
2022-11-15T06:33:46.953Z,0.00
2022-11-15T06:36:54.760Z,0.20
2022-11-15T06:40:00.506Z,0.10
2022-11-15T06:43:05.798Z,0.40
2022-11-15T06:46:11.606Z,0.10
2022-11-15T06:49:16.998Z,0.10
2022-11-15T06:52:22.438Z,0.20
2022-11-15T06:55:28.634Z,0.20
2022-11-15T06:58:34.396Z,0.20
2022-11-15T07:01:39.651Z,0.10
2022-11-15T07:04:45.250Z,0.10
2022-11-15T07:07:50.780Z,0.07
2022-11-15T07:10:56.753Z,0.30
2022-11-15T07:14:02.246Z,0.20
2022-11-15T07:16:47.832Z,0.20
2022-11-15T07:19:33.601Z,0.20
2022-11-15T07:22:19.221Z,0.20
2022-11-15T07:25:04.873Z,0.20
2022-11-15T07:28:00.713Z,0.03
2022-11-15T07:30:46.329Z,0.20
2022-11-15T07:33:32.759Z,0.10
2022-11-15T07:36:18.629Z,0.17
2022-11-15T07:39:04.374Z,0.03
2022-11-15T07:41:50.506Z,0.30
2022-11-15T07:44:36.123Z,0.20
2022-11-15T07:47:41.523Z,0.03
2022-11-15T07:50:48.095Z,0.20
2022-11-15T07:53:53.495Z,0.10
2022-11-15T07:57:03.879Z,0.30
2022-11-15T08:00:12.428Z,0.10
2022-11-15T08:03:30.671Z,0.10
2022-11-15T08:06:36.518Z,0.20
2022-11-15T08:09:41.871Z,0.10
2022-11-15T08:12:47.659Z,0.23
2022-11-15T08:15:57.768Z,0.17
2022-11-15T08:19:03.627Z,0.10
2022-11-15T08:22:09.144Z,0.13
2022-11-15T08:25:14.970Z,0.10
2022-11-15T08:28:23.438Z,0.20
2022-11-15T08:31:35.385Z,0.20
2022-11-15T08:34:40.962Z,0.10
2022-11-15T08:37:46.929Z,0.30
2022-11-15T08:40:52.628Z,0.20
2022-11-15T08:43:58.364Z,0.10
2022-11-15T08:47:06.773Z,0.27
2022-11-15T08:50:12.382Z,0.20
2022-11-15T08:53:17.701Z,0.30
2022-11-15T08:56:23.632Z,0.00
2022-11-15T08:59:29.213Z,0.10
2022-11-15T09:02:35.451Z,0.20
2022-11-15T09:05:41.103Z,0.10
2022-11-15T09:08:50.168Z,0.10
2022-11-15T09:12:01.016Z,0.20
2022-11-15T09:15:08.162Z,0.20
2022-11-15T09:18:13.684Z,0.10
2022-11-15T09:21:20.582Z,0.10
2022-11-15T09:24:25.958Z,0.10
2022-11-15T09:27:31.496Z,0.30
2022-11-15T09:30:37.065Z,0.30
2022-11-15T09:33:43.104Z,0.40
2022-11-15T09:36:48.494Z,0.20
2022-11-15T09:39:54.167Z,0.20
2022-11-15T09:43:08.442Z,0.30
2022-11-15T09:46:51.311Z,0.20
2022-11-15T09:50:04.289Z,0.10
2022-11-15T09:52:57.595Z,0.20
2022-11-15T09:56:02.810Z,0.10
2022-11-15T09:59:18.870Z,0.17
2022-11-15T10:02:26.311Z,0.10
2022-11-15T10:05:15.514Z,0.00
2022-11-15T10:08:27.022Z,0.20
2022-11-15T10:14:39.777Z,0.23
2022-11-15T10:17:47.819Z,0.10
2022-11-15T10:21:02.454Z,0.23
2022-11-15T10:23:50.907Z,0.10
2022-11-15T10:26:38.487Z,0.10
2022-11-15T10:29:27.137Z,0.20
2022-11-15T10:32:14.474Z,0.13
2022-11-15T10:35:01.662Z,0.10
2022-11-15T10:37:51.021Z,0.20
2022-11-15T10:40:45.315Z,0.10
2022-11-15T10:43:36.681Z,0.10
2022-11-15T10:46:48.287Z,0.10
2022-11-15T10:49:36.574Z,0.10
2022-11-15T10:52:32.888Z,0.10
2022-11-15T10:55:48.162Z,0.10
2022-11-15T10:58:52.654Z,0.20
2022-11-15T11:01:53.027Z,0.10
2022-11-15T11:04:40.073Z,0.20
2022-11-15T11:07:42.146Z,0.10
2022-11-15T11:10:51.939Z,0.10
2022-11-15T11:13:48.040Z,0.00
2022-11-15T11:16:38.811Z,0.00
2022-11-15T11:19:44.353Z,0.03
2022-11-15T11:23:08.964Z,0.10
2022-11-15T11:26:04.015Z,0.10
2022-11-15T11:29:11.881Z,0.00
2022-11-15T11:32:16.915Z,0.10
2022-11-15T11:35:15.811Z,0.20
2022-11-15T11:38:15.704Z,0.10
2022-11-15T11:41:25.079Z,0.10
2022-11-15T11:44:51.080Z,0.13
2022-11-15T11:47:49.890Z,0.10
2022-11-15T11:50:40.931Z,0.03
2022-11-15T11:53:45.367Z,0.10
2022-11-15T11:56:23.760Z,0.13
2022-11-15T11:58:54.124Z,0.10
2022-11-15T12:01:26.271Z,0.10
2022-11-15T12:04:30.931Z,0.10
2022-11-15T12:07:28.561Z,0.10
2022-11-15T12:11:03.790Z,0.10
2022-11-15T12:13:52.551Z,0.10
2022-11-15T12:16:48.467Z,0.10
2022-11-15T12:19:35.278Z,0.10
2022-11-15T12:22:31.827Z,0.20
2022-11-15T12:25:25.139Z,0.10
2022-11-15T12:28:21.771Z,0.00
2022-11-15T12:31:14.603Z,0.10
2022-11-15T12:34:07.347Z,0.10
2022-11-15T12:37:03.956Z,0.10
2022-11-15T12:40:38.392Z,0.20
2022-11-15T12:43:34.013Z,0.27
2022-11-15T12:46:24.772Z,0.10
2022-11-15T12:49:15.320Z,0.20
2022-11-15T12:52:07.855Z,0.10
2022-11-15T12:54:57.506Z,0.10
2022-11-15T12:57:50.973Z,0.10
2022-11-15T13:00:40.741Z,0.10
2022-11-15T13:03:48.986Z,0.20
2022-11-15T13:06:59.338Z,0.20
2022-11-15T13:10:06.577Z,0.20
2022-11-15T13:12:53.504Z,0.10
2022-11-15T13:15:57.186Z,0.10
2022-11-15T13:18:55.529Z,0.20
2022-11-15T13:21:43.906Z,0.10
2022-11-15T13:24:36.930Z,0.10
2022-11-15T13:27:36.129Z,0.10
2022-11-15T13:30:24.995Z,0.20
2022-11-15T13:33:12.836Z,0.10
2022-11-15T13:36:01.868Z,0.30
2022-11-15T13:38:52.086Z,0.10
2022-11-15T13:41:44.649Z,0.10
2022-11-15T13:44:41.331Z,0.10
2022-11-15T13:47:35.406Z,0.10
2022-11-15T13:50:22.658Z,0.10
2022-11-15T13:53:09.866Z,0.10
2022-11-15T13:55:57.394Z,0.10
2022-11-15T13:58:44.337Z,0.37
2022-11-15T14:01:37.724Z,0.20
2022-11-15T14:04:24.971Z,0.17
2022-11-15T14:07:18.840Z,0.10
2022-11-15T14:10:06.020Z,0.10
2022-11-15T14:12:55.610Z,0.20
2022-11-15T14:16:00.370Z,0.10
2022-11-15T14:19:03.332Z,0.20
2022-11-15T14:21:50.346Z,0.20
2022-11-15T14:24:42.292Z,0.10
2022-11-15T14:27:46.249Z,0.10
2022-11-15T14:30:37.388Z,0.07
2022-11-15T14:33:38.398Z,0.10
2022-11-15T14:36:39.863Z,0.03
2022-11-15T14:39:27.115Z,0.07
2022-11-15T14:42:14.005Z,0.10
2022-11-15T14:45:01.143Z,0.10
2022-11-15T14:47:48.105Z,0.20
2022-11-15T14:50:37.436Z,0.20
2022-11-15T14:53:24.947Z,0.20
2022-11-15T14:56:12.351Z,0.10
2022-11-15T14:58:59.511Z,0.10
2022-11-15T15:01:47.349Z,0.10
2022-11-15T15:04:34.386Z,0.10
2022-11-15T15:07:21.549Z,0.10
2022-11-15T15:13:15.731Z,0.10
2022-11-15T15:16:02.656Z,0.10
2022-11-15T15:18:49.704Z,0.20
2022-11-15T15:21:40.130Z,0.30
2022-11-15T15:24:27.294Z,0.20
2022-11-15T15:27:14.163Z,0.27
2022-11-15T15:30:01.958Z,0.10
2022-11-15T15:32:48.762Z,0.37
2022-11-15T15:35:37.205Z,0.30
2022-11-15T15:38:24.380Z,0.30
2022-11-15T15:41:11.475Z,0.40
2022-11-15T15:43:58.655Z,0.30
2022-11-15T15:46:45.907Z,0.30
2022-11-15T15:49:32.723Z,0.30
2022-11-15T15:52:19.706Z,0.30
2022-11-15T15:55:06.504Z,0.40
2022-11-15T15:57:53.642Z,0.63
2022-11-15T16:00:41.799Z,0.50
2022-11-15T16:03:28.863Z,0.60
2022-11-15T16:06:15.668Z,0.50
2022-11-15T16:09:15.026Z,0.63
2022-11-15T16:12:05.062Z,0.80
2022-11-15T16:14:32.322Z,0.50
2022-11-15T16:16:59.222Z,0.63
2022-11-15T16:19:26.095Z,0.60
2022-11-15T16:21:53.194Z,0.60
2022-11-15T16:24:20.877Z,0.60
2022-11-15T16:27:09.418Z,0.60
2022-11-15T16:29:56.199Z,0.60
2022-11-15T16:32:24.190Z,0.63
2022-11-15T16:34:51.376Z,0.50
2022-11-15T16:37:23.708Z,0.50
2022-11-15T16:39:51.120Z,0.57
2022-11-15T16:42:38.008Z,0.70
2022-11-15T16:45:25.341Z,0.63
2022-11-15T16:48:13.430Z,0.80
2022-11-15T16:51:00.423Z,0.73
2022-11-15T16:53:48.119Z,0.90
2022-11-15T16:56:45.659Z,1.07
2022-11-15T16:59:38.592Z,1.30
2022-11-15T17:02:31.853Z,0.90
2022-11-15T17:05:20.265Z,1.33
2022-11-15T17:08:14.795Z,1.00
2022-11-15T17:11:02.159Z,1.10
2022-11-15T17:13:49.106Z,1.10
2022-11-15T17:16:18.704Z,1.20
2022-11-15T17:18:45.794Z,1.00
2022-11-15T17:21:15.959Z,1.13
2022-11-15T17:23:43.883Z,0.90
2022-11-15T17:26:29.007Z,1.30
2022-11-15T17:28:57.911Z,1.13
2022-11-15T17:31:25.529Z,1.20
2022-11-15T17:34:12.756Z,1.20
2022-11-15T17:36:59.646Z,1.10
2022-11-15T17:39:46.548Z,0.97
2022-11-15T17:42:33.527Z,1.23
2022-11-15T17:45:20.391Z,1.13
2022-11-15T17:48:07.613Z,1.17
2022-11-15T17:50:54.664Z,1.40
2022-11-15T17:53:41.452Z,1.10
2022-11-15T17:56:31.178Z,1.17
2022-11-15T17:59:21.583Z,1.20
2022-11-15T18:02:08.838Z,0.87
2022-11-15T18:04:55.671Z,0.73
2022-11-15T18:07:42.799Z,0.93
2022-11-15T18:10:29.709Z,1.27
2022-11-15T18:13:16.709Z,0.97
2022-11-15T18:16:14.386Z,0.90
2022-11-15T18:19:02.251Z,1.00
2022-11-15T18:21:51.807Z,1.20
2022-11-15T18:24:38.872Z,0.53
2022-11-15T18:27:26.836Z,0.80
2022-11-15T18:30:14.019Z,0.80
2022-11-15T18:33:00.882Z,0.70
2022-11-15T18:35:47.851Z,0.60
2022-11-15T18:38:34.883Z,0.63
2022-11-15T18:41:36.505Z,0.80
2022-11-15T18:44:23.430Z,1.00
2022-11-15T18:47:10.399Z,0.53
2022-11-15T18:49:57.280Z,0.77
2022-11-15T18:52:46.603Z,0.70
2022-11-15T18:55:33.518Z,0.53
2022-11-15T18:58:20.528Z,0.90
2022-11-15T19:01:07.477Z,0.63
2022-11-15T19:03:55.760Z,0.63
2022-11-15T19:06:48.031Z,0.93
2022-11-15T19:09:37.192Z,0.90
2022-11-15T19:12:24.646Z,0.87
2022-11-15T19:15:11.655Z,0.73
2022-11-15T19:17:58.481Z,0.80
2022-11-15T19:20:45.730Z,1.20
2022-11-15T19:23:32.929Z,1.20
2022-11-15T19:26:21.681Z,1.17
2022-11-15T19:29:16.796Z,1.50
2022-11-15T19:32:04.241Z,1.30
2022-11-15T19:34:51.108Z,1.30
2022-11-15T19:37:38.480Z,1.27
2022-11-15T19:40:25.895Z,1.07
2022-11-15T19:43:13.056Z,0.90
2022-11-15T19:46:02.593Z,0.60
2022-11-15T19:48:52.054Z,0.70
2022-11-15T19:51:43.822Z,1.10
2022-11-15T19:54:31.101Z,0.80
2022-11-15T19:57:17.900Z,0.80
2022-11-15T20:00:07.458Z,0.50
2022-11-15T20:02:54.590Z,0.97
2022-11-15T20:05:41.655Z,1.23
2022-11-15T20:08:28.621Z,1.40
2022-11-15T20:11:15.812Z,1.20
2022-11-15T20:14:02.980Z,1.10
2022-11-15T20:16:54.277Z,0.87
2022-11-15T20:19:41.522Z,0.90
2022-11-15T20:22:28.726Z,1.00
2022-11-15T20:25:15.611Z,0.80
2022-11-15T20:28:02.909Z,1.00
2022-11-15T20:30:49.913Z,0.80
2022-11-15T20:33:37.023Z,1.00
2022-11-15T20:36:30.613Z,1.10
2022-11-15T20:39:18.846Z,1.00
2022-11-15T20:42:05.796Z,0.90
2022-11-15T20:44:52.782Z,1.00
2022-11-15T20:47:39.600Z,0.93
2022-11-15T20:50:42.260Z,0.70
2022-11-15T20:53:32.534Z,0.67
2022-11-15T20:56:28.258Z,0.50
2022-11-15T20:59:15.164Z,0.60
2022-11-15T21:02:02.140Z,0.40
2022-11-15T21:04:49.220Z,0.60
2022-11-15T21:07:36.321Z,0.57
2022-11-15T21:10:22.248Z,0.57
2022-11-15T21:13:09.140Z,0.50
2022-11-15T21:15:55.954Z,0.50
2022-11-15T21:18:43.031Z,0.30
2022-11-15T21:21:29.959Z,0.30
2022-11-15T21:24:16.868Z,0.30
2022-11-15T21:27:03.779Z,0.40
2022-11-15T21:29:56.948Z,0.30
2022-11-15T21:32:43.979Z,0.50
2022-11-15T21:35:30.976Z,0.30
2022-11-15T21:38:17.898Z,0.30
2022-11-15T21:41:04.851Z,0.37
2022-11-15T21:43:52.163Z,0.37
2022-11-15T21:46:39.175Z,0.27
2022-11-15T21:49:26.723Z,0.33
2022-11-15T21:52:13.587Z,0.30
2022-11-15T21:55:00.488Z,0.40
2022-11-15T21:57:47.622Z,0.30
2022-11-15T22:00:34.045Z,0.17
2022-11-15T22:03:21.055Z,0.20
2022-11-15T22:06:10.670Z,0.30
2022-11-15T22:08:59.979Z,0.20
2022-11-15T22:11:46.950Z,0.23
2022-11-15T22:14:34.090Z,0.30
2022-11-15T22:17:21.378Z,0.30
2022-11-15T22:20:29.957Z,0.30
2022-11-15T22:23:15.375Z,0.30
2022-11-15T22:26:03.340Z,0.20
2022-11-15T22:28:50.323Z,0.43
2022-11-15T22:31:37.261Z,0.20
2022-11-15T22:34:24.227Z,0.40
2022-11-15T22:37:20.492Z,0.40
2022-11-15T22:40:09.640Z,0.20
2022-11-15T22:42:56.653Z,0.33
2022-11-15T22:45:43.762Z,0.40
2022-11-15T22:48:30.797Z,0.27
2022-11-15T22:51:18.528Z,0.27
2022-11-15T22:54:05.583Z,0.20
2022-11-15T22:56:52.496Z,0.20
2022-11-15T22:59:39.570Z,0.10
2022-11-15T23:02:26.589Z,0.10
2022-11-15T23:05:13.507Z,0.30
2022-11-15T23:08:00.679Z,0.30
2022-11-15T23:10:46.504Z,0.20
2022-11-15T23:13:36.693Z,0.30
2022-11-15T23:16:25.549Z,0.20
2022-11-15T23:19:18.173Z,0.20
2022-11-15T23:22:05.085Z,0.30
2022-11-15T23:24:53.198Z,0.47
2022-11-15T23:27:40.231Z,0.20
2022-11-15T23:30:27.919Z,0.30
2022-11-15T23:33:13.706Z,0.47
2022-11-15T23:36:00.861Z,0.10
2022-11-15T23:38:47.827Z,0.30
2022-11-15T23:41:34.919Z,0.20
2022-11-15T23:44:22.067Z,0.30
2022-11-15T23:47:09.062Z,0.40
2022-11-15T23:49:56.223Z,0.30
2022-11-15T23:52:43.243Z,0.27
2022-11-15T23:55:30.237Z,0.20
2022-11-15T23:58:17.443Z,0.20
